Time,TemperatureF,DewpointF,PressureIn,WindDirection,WindDirectionDegrees,WindSpeedMPH,WindSpeedGustMPH,Humidity,HourlyPrecipIn,Conditions,Clouds,dailyrainin,SoftwareType,DateUTC
2014-01-09 00:01:00,16.7,4.1,30.44,WSW,242,0.0,2.0,57,0.00,,,0.00,WeatherCatV1.15B25,2014-01-09 05:01:00,
2014-01-09 00:02:00,16.7,4.1,30.44,NW,313,2.0,2.0,57,0.00,,,0.00,WeatherCatV1.15B25,2014-01-09 05:02:00,
2014-01-09 00:03:00,16.7,4.1,30.44,NNE,15,0.0,3.0,57,0.00,,,0.00,WeatherCatV1.15B25,2014-01-09 05:03:00,
2014-01-09 00:04:00,16.7,4.1,30.43,NNE,15,1.0,3.0,57,0.00,,,0.00,WeatherCatV1.15B25,2014-01-09 05:04:00,
2014-01-09 00:09:00,16.7,4.1,30.43,NE,53,0.0,2.0,57,0.00,,,0.00,WeatherCatV1.15B25,2014-01-09 05:09:00,
2014-01-09 00:11:00,16.7,4.1,30.43,NW,311,1.0,2.0,57,0.00,,,0.00,WeatherCatV1.15B25,2014-01-09 05:11:00,
2014-01-09 00:16:00,16.7,4.1,30.43,NW,307,1.0,1.0,57,0.00,,,0.00,WeatherCatV1.15B25,2014-01-09 05:16:00,
2014-01-09 00:21:00,16.7,4.1,30.44,West,276,0.0,2.0,57,0.00,,,0.00,WeatherCatV1.15B25,2014-01-09 05:21:00,
2014-01-09 00:26:00,16.8,4.6,30.43,NE,40,0.0,2.0,58,0.00,,,0.00,WeatherCatV1.15B25,2014-01-09 05:26:00,
2014-01-09 00:31:00,16.8,4.6,30.43,NW,322,0.0,0.0,58,0.00,,,0.00,WeatherCatV1.15B25,2014-01-09 05:31:00,
2014-01-09 00:36:00,16.8,4.2,30.43,ESE,116,0.0,0.0,57,0.00,,,0.00,WeatherCatV1.15B25,2014-01-09 05:36:00,
2014-01-09 00:41:00,16.7,4.1,30.43,NW,309,1.0,2.0,57,0.00,,,0.00,WeatherCatV1.15B25,2014-01-09 05:41:00,
2014-01-09 00:46:00,16.8,4.2,30.43,NNW,348,0.0,2.0,57,0.00,,,0.00,WeatherCatV1.15B25,2014-01-09 05:46:00,
2014-01-09 00:51:00,16.8,4.2,30.43,ENE,60,0.0,1.0,57,0.00,,,0.00,WeatherCatV1.15B25,2014-01-09 05:51:00,
2014-01-09 00:56:00,16.8,4.2,30.43,WNW,284,0.0,2.0,57,0.00,,,0.00,WeatherCatV1.15B25,2014-01-09 05:56:00,
2014-01-09 01:01:00,16.8,4.2,30.43,WNW,293,0.0,1.0,57,0.00,,,0.00,WeatherCatV1.15B25,2014-01-09 06:01:00,
2014-01-09 01:06:00,16.8,4.6,30.43,NW,309,1.0,1.0,58,0.00,,,0.00,WeatherCatV1.15B25,2014-01-09 06:06:00,
2014-01-09 01:11:00,16.8,4.6,30.43,North,349,1.0,1.0,58,0.00,,,0.00,WeatherCatV1.15B25,2014-01-09 06:11:00,
2014-01-09 01:16:00,16.8,4.6,30.43,WNW,286,0.0,1.0,58,0.00,,,0.00,WeatherCatV1.15B25,2014-01-09 06:16:00,
2014-01-09 01:21:00,16.8,4.6,30.44,NW,308,1.0,2.0,58,0.00,,,0.00,WeatherCatV1.15B25,2014-01-09 06:21:00,
2014-01-09 01:26:00,16.9,4.3,30.44,West,260,0.0,2.0,57,0.00,,,0.00,WeatherCatV1.15B25,2014-01-09 06:26:00,
2014-01-09 01:31:00,16.9,4.7,30.44,NW,306,1.0,1.0,58,0.00,,,0.00,WeatherCatV1.15B25,2014-01-09 06:31:00,
2014-01-09 01:36:00,16.9,4.3,30.44,NE,41,0.0,2.0,57,0.00,,,0.00,WeatherCatV1.15B25,2014-01-09 06:36:00,
2014-01-09 01:41:00,16.8,4.2,30.44,WNW,283,1.0,3.0,57,0.00,,,0.00,WeatherCatV1.15B25,2014-01-09 06:41:00,
2014-01-09 01:46:00,16.8,4.6,30.45,NNE,23,0.0,1.0,58,0.00,,,0.00,WeatherCatV1.15B25,2014-01-09 06:46:00,
2014-01-09 01:51:00,16.7,4.5,30.45,East,90,0.0,2.0,58,0.00,,,0.00,WeatherCatV1.15B25,2014-01-09 06:51:00,
2014-01-09 01:56:00,16.5,4.3,30.45,NW,316,0.0,0.0,58,0.00,,,0.00,WeatherCatV1.15B25,2014-01-09 06:56:00,
2014-01-09 02:01:00,16.3,4.5,30.45,West,271,0.0,1.0,59,0.00,,,0.00,WeatherCatV1.15B25,2014-01-09 07:01:00,
2014-01-09 02:06:00,16.3,4.5,30.45,NNW,328,0.0,2.0,59,0.00,,,0.00,WeatherCatV1.15B25,2014-01-09 07:06:00,
2014-01-09 02:12:00,16.3,4.5,30.45,NW,309,1.0,1.0,59,0.00,,,0.00,WeatherCatV1.15B25,2014-01-09 07:12:00,
2014-01-09 02:17:00,16.4,4.6,30.45,WNW,302,1.0,1.0,59,0.00,,,0.00,WeatherCatV1.15B25,2014-01-09 07:17:00,
2014-01-09 02:22:00,16.3,4.5,30.45,North,1,1.0,2.0,59,0.00,,,0.00,WeatherCatV1.15B25,2014-01-09 07:22:00,
2014-01-09 02:27:00,16.2,4.8,30.45,WNW,288,0.0,1.0,60,0.00,,,0.00,WeatherCatV1.15B25,2014-01-09 07:27:00,
2014-01-09 02:32:00,16.2,4.8,30.45,NW,314,1.0,3.0,60,0.00,,,0.00,WeatherCatV1.15B25,2014-01-09 07:32:00,
2014-01-09 02:37:00,16.2,4.4,30.46,WSW,250,0.0,0.0,59,0.00,,,0.00,WeatherCatV1.15B25,2014-01-09 07:37:00,
2014-01-09 02:42:00,16.2,4.8,30.46,WNW,290,1.0,1.0,60,0.00,,,0.00,WeatherCatV1.15B25,2014-01-09 07:42:00,
2014-01-09 02:47:00,16.2,4.8,30.46,WNW,300,0.0,1.0,60,0.00,,,0.00,WeatherCatV1.15B25,2014-01-09 07:47:00,
2014-01-09 02:52:00,16.2,4.8,30.46,WNW,300,1.0,4.0,60,0.00,,,0.00,WeatherCatV1.15B25,2014-01-09 07:52:00,
2014-01-09 02:57:00,16.3,4.9,30.46,West,276,0.0,1.0,60,0.00,,,0.00,WeatherCatV1.15B25,2014-01-09 07:57:00,
2014-01-09 03:02:00,16.3,4.9,30.46,WSW,254,0.0,1.0,60,0.00,,,0.00,WeatherCatV1.15B25,2014-01-09 08:02:00,
2014-01-09 03:07:00,16.3,4.9,30.46,WNW,285,0.0,1.0,60,0.00,,,0.00,WeatherCatV1.15B25,2014-01-09 08:07:00,
2014-01-09 03:12:00,16.3,4.9,30.46,WNW,300,1.0,1.0,60,0.00,,,0.00,WeatherCatV1.15B25,2014-01-09 08:12:00,
2014-01-09 03:17:00,16.4,5.0,30.46,NW,307,0.0,1.0,60,0.00,,,0.00,WeatherCatV1.15B25,2014-01-09 08:17:00,
2014-01-09 03:22:00,16.4,5.0,30.46,West,273,0.0,3.0,60,0.00,,,0.00,WeatherCatV1.15B25,2014-01-09 08:22:00,
2014-01-09 03:27:00,16.4,4.6,30.46,WSW,250,2.0,2.0,59,0.00,,,0.00,WeatherCatV1.15B25,2014-01-09 08:27:00,
2014-01-09 03:32:00,16.5,4.7,30.46,WNW,290,0.0,1.0,59,0.00,,,0.00,WeatherCatV1.15B25,2014-01-09 08:32:00,
2014-01-09 03:37:00,16.5,4.7,30.46,WSW,258,4.0,4.0,59,0.00,,,0.00,WeatherCatV1.15B25,2014-01-09 08:37:00,
2014-01-09 03:42:00,16.6,4.8,30.46,NW,321,0.0,0.0,59,0.00,,,0.00,WeatherCatV1.15B25,2014-01-09 08:42:00,
2014-01-09 03:47:00,16.6,4.8,30.45,WNW,288,0.0,1.0,59,0.00,,,0.00,WeatherCatV1.15B25,2014-01-09 08:47:00,
2014-01-09 03:52:00,16.6,5.2,30.46,WNW,302,0.0,1.0,60,0.00,,,0.00,WeatherCatV1.15B25,2014-01-09 08:52:00,
2014-01-09 03:57:00,16.5,5.1,30.46,WNW,293,0.0,1.0,60,0.00,,,0.00,WeatherCatV1.15B25,2014-01-09 08:57:00,
2014-01-09 04:02:00,16.4,5.0,30.46,WNW,283,3.0,3.0,60,0.00,,,0.00,WeatherCatV1.15B25,2014-01-09 09:02:00,
2014-01-09 04:07:00,16.4,5.0,30.46,NW,317,0.0,1.0,60,0.00,,,0.00,WeatherCatV1.15B25,2014-01-09 09:07:00,
2014-01-09 04:12:00,16.4,5.0,30.46,NW,309,0.0,1.0,60,0.00,,,0.00,WeatherCatV1.15B25,2014-01-09 09:12:00,
2014-01-09 04:17:00,16.3,4.9,30.46,North,10,0.0,1.0,60,0.00,,,0.00,WeatherCatV1.15B25,2014-01-09 09:17:00,
2014-01-09 04:22:00,16.0,5.0,30.46,North,10,0.0,0.0,61,0.00,,,0.00,WeatherCatV1.15B25,2014-01-09 09:22:00,
2014-01-09 04:27:00,15.8,5.1,30.46,NW,324,0.0,2.0,62,0.00,,,0.00,WeatherCatV1.15B25,2014-01-09 09:27:00,
2014-01-09 04:32:00,15.7,5.0,30.47,NNW,345,0.0,0.0,62,0.00,,,0.00,WeatherCatV1.15B25,2014-01-09 09:32:00,
2014-01-09 04:37:00,15.5,5.2,30.47,NNW,344,0.0,0.0,63,0.00,,,0.00,WeatherCatV1.15B25,2014-01-09 09:37:00,
2014-01-09 04:42:00,15.3,5.0,30.47,NNW,344,0.0,0.0,63,0.00,,,0.00,WeatherCatV1.15B25,2014-01-09 09:42:00,
2014-01-09 04:47:00,15.2,5.2,30.47,NNW,345,0.0,0.0,64,0.00,,,0.00,WeatherCatV1.15B25,2014-01-09 09:47:00,
2014-01-09 04:52:00,15.0,5.1,30.48,NNW,345,0.0,0.0,64,0.00,,,0.00,WeatherCatV1.15B25,2014-01-09 09:52:00,
2014-01-09 04:57:00,14.7,4.8,30.48,NNW,345,0.0,0.0,64,0.00,,,0.00,WeatherCatV1.15B25,2014-01-09 09:57:00,
2014-01-09 05:02:00,14.5,4.9,30.48,NNW,345,0.0,0.0,65,0.00,,,0.00,WeatherCatV1.15B25,2014-01-09 10:02:00,
2014-01-09 05:07:00,14.5,4.9,30.48,NNW,345,0.0,0.0,65,0.00,,,0.00,WeatherCatV1.15B25,2014-01-09 10:07:00,
2014-01-09 05:12:00,14.4,5.1,30.48,NNW,345,0.0,0.0,66,0.00,,,0.00,WeatherCatV1.15B25,2014-01-09 10:12:00,
2014-01-09 05:17:00,14.2,5.0,30.49,ESE,105,0.0,0.0,66,0.00,,,0.00,WeatherCatV1.15B25,2014-01-09 10:17:00,
2014-01-09 05:22:00,14.0,4.8,30.49,ESE,105,0.0,0.0,66,0.00,,,0.00,WeatherCatV1.15B25,2014-01-09 10:22:00,
2014-01-09 05:27:00,13.9,5.0,30.49,ESE,105,0.0,0.0,67,0.00,,,0.00,WeatherCatV1.15B25,2014-01-09 10:27:00,
2014-01-09 05:32:00,13.9,5.0,30.49,ENE,71,0.0,0.0,67,0.00,,,0.00,WeatherCatV1.15B25,2014-01-09 10:32:00,
2014-01-09 05:37:00,14.0,5.1,30.49,NNE,32,0.0,0.0,67,0.00,,,0.00,WeatherCatV1.15B25,2014-01-09 10:37:00,
2014-01-09 05:42:00,14.0,5.1,30.50,WNW,285,0.0,0.0,67,0.00,,,0.00,WeatherCatV1.15B25,2014-01-09 10:42:00,
2014-01-09 05:47:00,14.2,5.3,30.49,WNW,293,0.0,0.0,67,0.00,,,0.00,WeatherCatV1.15B25,2014-01-09 10:47:00,
2014-01-09 05:52:00,14.4,5.1,30.50,NW,307,0.0,1.0,66,0.00,,,0.00,WeatherCatV1.15B25,2014-01-09 10:52:00,
2014-01-09 05:57:00,14.5,5.2,30.50,North,356,0.0,1.0,66,0.00,,,0.00,WeatherCatV1.15B25,2014-01-09 10:57:00,
2014-01-09 06:02:00,14.5,5.2,30.50,WNW,303,0.0,1.0,66,0.00,,,0.00,WeatherCatV1.15B25,2014-01-09 11:02:00,
2014-01-09 06:07:00,14.6,5.3,30.50,West,274,0.0,0.0,66,0.00,,,0.00,WeatherCatV1.15B25,2014-01-09 11:07:00,
2014-01-09 06:12:00,14.5,5.2,30.50,NW,314,2.0,3.0,66,0.00,,,0.00,WeatherCatV1.15B25,2014-01-09 11:12:00,
2014-01-09 06:17:00,14.5,5.2,30.51,NW,317,0.0,0.0,66,0.00,,,0.00,WeatherCatV1.15B25,2014-01-09 11:17:00,
2014-01-09 06:22:00,14.3,5.1,30.51,NW,316,0.0,0.0,66,0.00,,,0.00,WeatherCatV1.15B25,2014-01-09 11:22:00,
2014-01-09 06:27:00,14.1,5.2,30.51,ENE,76,0.0,1.0,67,0.00,,,0.00,WeatherCatV1.15B25,2014-01-09 11:27:00,
2014-01-09 06:32:00,14.0,5.1,30.51,NE,43,0.0,0.0,67,0.00,,,0.00,WeatherCatV1.15B25,2014-01-09 11:32:00,
2014-01-09 06:37:00,14.0,5.1,30.51,NW,313,0.0,1.0,67,0.00,,,0.00,WeatherCatV1.15B25,2014-01-09 11:37:00,
2014-01-09 06:42:00,14.2,5.3,30.52,WNW,289,0.0,0.0,67,0.00,,,0.00,WeatherCatV1.15B25,2014-01-09 11:42:00,
2014-01-09 06:47:00,14.1,5.2,30.52,West,264,0.0,0.0,67,0.00,,,0.00,WeatherCatV1.15B25,2014-01-09 11:47:00,
2014-01-09 06:52:00,14.2,5.3,30.52,West,269,0.0,1.0,67,0.00,,,0.00,WeatherCatV1.15B25,2014-01-09 11:52:00,
2014-01-09 06:57:00,14.2,5.3,30.52,WNW,287,0.0,0.0,67,0.00,,,0.00,WeatherCatV1.15B25,2014-01-09 11:57:00,
2014-01-09 07:02:00,14.1,5.5,30.52,WNW,287,0.0,0.0,68,0.00,,,0.00,WeatherCatV1.15B25,2014-01-09 12:02:00,
2014-01-09 07:07:00,14.1,5.5,30.52,WNW,302,0.0,1.0,68,0.00,,,0.00,WeatherCatV1.15B25,2014-01-09 12:07:00,
2014-01-09 07:12:00,14.3,5.4,30.52,NNW,338,0.0,1.0,67,0.00,,,0.00,WeatherCatV1.15B25,2014-01-09 12:12:00,
2014-01-09 07:17:00,14.4,5.5,30.52,West,264,0.0,0.0,67,0.00,,,0.00,WeatherCatV1.15B25,2014-01-09 12:17:00,
2014-01-09 07:22:00,14.5,5.6,30.52,WNW,302,1.0,2.0,67,0.00,,,0.00,WeatherCatV1.15B25,2014-01-09 12:22:00,
2014-01-09 07:27:00,14.6,5.3,30.52,NNW,333,0.0,1.0,66,0.00,,,0.00,WeatherCatV1.15B25,2014-01-09 12:27:00,
2014-01-09 07:32:00,14.8,5.5,30.53,NNE,19,0.0,1.0,66,0.00,,,0.00,WeatherCatV1.15B25,2014-01-09 12:32:00,
2014-01-09 07:37:00,14.8,5.5,30.53,North,10,0.0,0.0,66,0.00,,,0.00,WeatherCatV1.15B25,2014-01-09 12:37:00,
2014-01-09 07:42:00,14.9,5.6,30.53,NE,34,0.0,1.0,66,0.00,,,0.00,WeatherCatV1.15B25,2014-01-09 12:42:00,
2014-01-09 07:47:00,15.2,5.6,30.53,NW,316,1.0,4.0,65,0.00,,,0.00,WeatherCatV1.15B25,2014-01-09 12:47:00,
2014-01-09 07:53:00,15.6,6.0,30.54,NW,304,0.0,0.0,65,0.00,,,0.00,WeatherCatV1.15B25,2014-01-09 12:53:00,
2014-01-09 07:58:00,15.8,5.8,30.54,NW,312,0.0,4.0,64,0.00,,,0.00,WeatherCatV1.15B25,2014-01-09 12:58:00,
2014-01-09 08:03:00,15.9,5.9,30.55,NNW,332,0.0,2.0,64,0.00,,,0.00,WeatherCatV1.15B25,2014-01-09 13:03:00,
2014-01-09 08:08:00,16.1,6.1,30.56,SE,126,2.0,6.0,64,0.00,,,0.00,WeatherCatV1.15B25,2014-01-09 13:08:00,
2014-01-09 08:13:00,16.2,6.2,30.56,North,1,0.0,1.0,64,0.00,,,0.00,WeatherCatV1.15B25,2014-01-09 13:13:00,
2014-01-09 08:18:00,16.5,6.1,30.56,NE,42,2.0,5.0,63,0.00,,,0.00,WeatherCatV1.15B25,2014-01-09 13:18:00,
2014-01-09 08:23:00,16.6,5.9,30.56,West,274,2.0,6.0,62,0.00,,,0.00,WeatherCatV1.15B25,2014-01-09 13:23:00,
2014-01-09 08:28:00,16.8,6.1,30.57,West,277,1.0,3.0,62,0.00,,,0.00,WeatherCatV1.15B25,2014-01-09 13:28:00,
2014-01-09 08:33:00,16.8,6.1,30.57,NNE,20,0.0,3.0,62,0.00,,,0.00,WeatherCatV1.15B25,2014-01-09 13:33:00,
2014-01-09 08:38:00,16.9,6.5,30.57,West,262,0.0,1.0,63,0.00,,,0.00,WeatherCatV1.15B25,2014-01-09 13:38:00,
2014-01-09 08:43:00,17.1,6.7,30.58,SSE,164,2.0,4.0,63,0.00,,,0.00,WeatherCatV1.15B25,2014-01-09 13:43:00,
2014-01-09 08:48:00,17.3,6.5,30.58,West,261,0.0,1.0,62,0.00,,,0.00,WeatherCatV1.15B25,2014-01-09 13:48:00,
2014-01-09 08:53:00,17.5,6.7,30.58,NW,305,1.0,1.0,62,0.00,,,0.00,WeatherCatV1.15B25,2014-01-09 13:53:00,
2014-01-09 08:58:00,17.8,6.7,30.58,WNW,285,1.0,3.0,61,0.00,,,0.00,WeatherCatV1.15B25,2014-01-09 13:58:00,
2014-01-09 09:03:00,17.9,6.8,30.58,NW,312,2.0,3.0,61,0.00,,,0.00,WeatherCatV1.15B25,2014-01-09 14:03:00,
2014-01-09 09:08:00,18.3,7.1,30.58,NW,309,1.0,2.0,61,0.00,,,0.00,WeatherCatV1.15B25,2014-01-09 14:08:00,
2014-01-09 09:13:00,18.7,7.2,30.58,NW,325,2.0,5.0,60,0.00,,,0.00,WeatherCatV1.15B25,2014-01-09 14:13:00,
2014-01-09 09:18:00,19.2,7.6,30.59,WNW,295,1.0,3.0,60,0.00,,,0.00,WeatherCatV1.15B25,2014-01-09 14:18:00,
2014-01-09 09:23:00,19.6,7.6,30.59,North,352,0.0,3.0,59,0.00,,,0.00,WeatherCatV1.15B25,2014-01-09 14:23:00,
2014-01-09 09:28:00,20.2,7.8,30.59,North,1,1.0,4.0,58,0.00,,,0.00,WeatherCatV1.15B25,2014-01-09 14:28:00,
2014-01-09 09:33:00,20.4,7.6,30.59,East,98,1.0,1.0,57,0.00,,,0.00,WeatherCatV1.15B25,2014-01-09 14:33:00,
2014-01-09 09:38:00,21.0,8.2,30.59,West,269,0.0,2.0,57,0.00,,,0.00,WeatherCatV1.15B25,2014-01-09 14:38:00,
2014-01-09 09:43:00,21.3,8.5,30.59,NNW,347,1.0,2.0,57,0.00,,,0.00,WeatherCatV1.15B25,2014-01-09 14:43:00,
2014-01-09 09:48:00,21.6,8.4,30.59,WNW,302,3.0,3.0,56,0.00,,,0.00,WeatherCatV1.15B25,2014-01-09 14:48:00,
2014-01-09 09:53:00,21.9,8.6,30.60,WNW,300,3.0,4.0,56,0.00,,,0.00,WeatherCatV1.15B25,2014-01-09 14:53:00,
2014-01-09 09:58:00,22.0,7.9,30.60,NE,34,1.0,6.0,54,0.00,,,0.00,WeatherCatV1.15B25,2014-01-09 14:58:00,
2014-01-09 10:03:00,22.1,8.4,30.60,WNW,291,2.0,5.0,55,0.00,,,0.00,WeatherCatV1.15B25,2014-01-09 15:03:00,
2014-01-09 10:08:00,22.6,8.5,30.60,WNW,297,0.0,3.0,54,0.00,,,0.00,WeatherCatV1.15B25,2014-01-09 15:08:00,
2014-01-09 10:13:00,23.2,9.1,30.60,WSW,250,1.0,2.0,54,0.00,,,0.00,WeatherCatV1.15B25,2014-01-09 15:13:00,
2014-01-09 10:18:00,23.3,8.3,30.61,NE,43,1.0,6.0,52,0.00,,,0.00,WeatherCatV1.15B25,2014-01-09 15:18:00,
2014-01-09 10:23:00,23.2,8.2,30.60,WNW,287,1.0,6.0,52,0.00,,,0.00,WeatherCatV1.15B25,2014-01-09 15:23:00,
2014-01-09 10:28:00,23.2,8.2,30.60,NW,322,2.0,4.0,52,0.00,,,0.00,WeatherCatV1.15B25,2014-01-09 15:28:00,
2014-01-09 10:33:00,23.3,7.9,30.60,WSW,251,2.0,6.0,51,0.00,,,0.00,WeatherCatV1.15B25,2014-01-09 15:33:00,
2014-01-09 10:38:00,23.6,9.4,30.60,WNW,283,0.0,2.0,54,0.00,,,0.00,WeatherCatV1.15B25,2014-01-09 15:38:00,
2014-01-09 10:43:00,24.2,8.7,30.60,West,280,1.0,3.0,51,0.00,,,0.00,WeatherCatV1.15B25,2014-01-09 15:43:00,
2014-01-09 10:48:00,24.3,8.8,30.59,NW,319,3.0,3.0,51,0.00,,,0.00,WeatherCatV1.15B25,2014-01-09 15:48:00,
2014-01-09 10:53:00,24.3,8.4,30.59,NNW,340,2.0,7.0,50,0.00,,,0.00,WeatherCatV1.15B25,2014-01-09 15:53:00,
2014-01-09 10:58:00,24.3,8.8,30.59,WSW,243,1.0,2.0,51,0.00,,,0.00,WeatherCatV1.15B25,2014-01-09 15:58:00,
2014-01-09 11:03:00,24.7,8.7,30.59,West,263,2.0,4.0,50,0.00,,,0.00,WeatherCatV1.15B25,2014-01-09 16:03:00,
2014-01-09 11:08:00,24.3,7.9,30.59,NNE,32,1.0,8.0,49,0.00,,,0.00,WeatherCatV1.15B25,2014-01-09 16:08:00,
2014-01-09 11:13:00,24.2,8.3,30.59,NW,311,3.0,9.0,50,0.00,,,0.00,WeatherCatV1.15B25,2014-01-09 16:13:00,
2014-01-09 11:18:00,24.4,8.5,30.59,SW,229,1.0,3.0,50,0.00,,,0.00,WeatherCatV1.15B25,2014-01-09 16:18:00,
2014-01-09 11:23:00,24.5,8.6,30.58,West,262,1.0,2.0,50,0.00,,,0.00,WeatherCatV1.15B25,2014-01-09 16:23:00,
2014-01-09 11:28:00,24.8,8.4,30.58,NW,305,3.0,6.0,49,0.00,,,0.00,WeatherCatV1.15B25,2014-01-09 16:28:00,
2014-01-09 11:33:00,25.0,8.6,30.58,NW,314,3.0,4.0,49,0.00,,,0.00,WeatherCatV1.15B25,2014-01-09 16:33:00,
2014-01-09 11:38:00,25.2,8.3,30.58,NNE,16,1.0,6.0,48,0.00,,,0.00,WeatherCatV1.15B25,2014-01-09 16:38:00,
2014-01-09 11:43:00,25.3,8.4,30.58,NW,323,2.0,6.0,48,0.00,,,0.00,WeatherCatV1.15B25,2014-01-09 16:43:00,
2014-01-09 11:48:00,25.4,8.5,30.57,NE,43,5.0,6.0,48,0.00,,,0.00,WeatherCatV1.15B25,2014-01-09 16:48:00,
2014-01-09 11:53:00,25.4,8.0,30.57,NW,323,3.0,7.0,47,0.00,,,0.00,WeatherCatV1.15B25,2014-01-09 16:53:00,
2014-01-09 11:58:00,25.4,8.0,30.57,NNW,328,4.0,5.0,47,0.00,,,0.00,WeatherCatV1.15B25,2014-01-09 16:58:00,
2014-01-09 12:03:00,25.4,8.0,30.57,NNW,333,2.0,7.0,47,0.00,,,0.00,WeatherCatV1.15B25,2014-01-09 17:03:00,
2014-01-09 12:08:00,25.5,8.1,30.57,NNW,328,1.0,6.0,47,0.00,,,0.00,WeatherCatV1.15B25,2014-01-09 17:08:00,
2014-01-09 12:13:00,25.7,8.3,30.57,NW,316,1.0,2.0,47,0.00,,,0.00,WeatherCatV1.15B25,2014-01-09 17:13:00,
2014-01-09 12:18:00,26.1,8.2,30.57,West,276,4.0,7.0,46,0.00,,,0.00,WeatherCatV1.15B25,2014-01-09 17:18:00,
2014-01-09 12:23:00,25.8,7.4,30.57,SW,217,4.0,6.0,45,0.00,,,0.00,WeatherCatV1.15B25,2014-01-09 17:23:00,
2014-01-09 12:28:00,25.9,7.5,30.57,WNW,283,2.0,6.0,45,0.00,,,0.00,WeatherCatV1.15B25,2014-01-09 17:28:00,
2014-01-09 12:33:00,25.9,7.5,30.57,NNW,342,2.0,9.0,45,0.00,,,0.00,WeatherCatV1.15B25,2014-01-09 17:33:00,
2014-01-09 12:38:00,26.2,7.8,30.57,WSW,244,5.0,5.0,45,0.00,,,0.00,WeatherCatV1.15B25,2014-01-09 17:38:00,
2014-01-09 12:43:00,26.1,7.2,30.57,NW,316,1.0,4.0,44,0.00,,,0.00,WeatherCatV1.15B25,2014-01-09 17:43:00,
2014-01-09 12:48:00,26.5,8.1,30.57,NW,305,2.0,4.0,45,0.00,,,0.00,WeatherCatV1.15B25,2014-01-09 17:48:00,
2014-01-09 12:55:00,26.2,7.3,30.56,NE,39,1.0,2.0,44,0.00,,,0.00,WeatherCatV1.15B25,2014-01-09 17:55:00,
2014-01-09 13:01:00,26.5,8.1,30.56,WNW,297,3.0,5.0,45,0.00,,,0.00,WeatherCatV1.15B25,2014-01-09 18:01:00,
2014-01-09 13:12:00,26.9,7.9,30.56,NNE,25,1.0,3.0,44,0.00,,,0.00,WeatherCatV1.15B25,2014-01-09 18:12:00,
2014-01-09 13:17:00,26.8,7.3,30.56,WNW,301,3.0,7.0,43,0.00,,,0.00,WeatherCatV1.15B25,2014-01-09 18:17:00,
2014-01-09 13:22:00,26.9,7.9,30.56,NW,307,0.0,2.0,44,0.00,,,0.00,WeatherCatV1.15B25,2014-01-09 18:22:00,
2014-01-09 13:27:00,27.0,7.5,30.56,NNE,13,1.0,4.0,43,0.00,,,0.00,WeatherCatV1.15B25,2014-01-09 18:27:00,
2014-01-09 13:34:00,26.9,7.9,30.56,West,264,4.0,5.0,44,0.00,,,0.00,WeatherCatV1.15B25,2014-01-09 18:34:00,
2014-01-09 13:39:00,26.9,7.4,30.56,West,280,2.0,7.0,43,0.00,,,0.00,WeatherCatV1.15B25,2014-01-09 18:39:00,
2014-01-09 13:44:00,27.0,7.5,30.56,SSW,193,0.0,0.0,43,0.00,,,0.00,WeatherCatV1.15B25,2014-01-09 18:44:00,
2014-01-09 13:49:00,27.3,7.8,30.57,WSW,254,4.0,4.0,43,0.00,,,0.00,WeatherCatV1.15B25,2014-01-09 18:49:00,
2014-01-09 13:54:00,27.3,7.3,30.57,West,272,4.0,4.0,42,0.00,,,0.00,WeatherCatV1.15B25,2014-01-09 18:54:00,
2014-01-09 13:59:00,27.1,7.1,30.57,West,276,4.0,6.0,42,0.00,,,0.00,WeatherCatV1.15B25,2014-01-09 18:59:00,
2014-01-09 14:04:00,27.3,7.8,30.57,NNW,338,1.0,2.0,43,0.00,,,0.00,WeatherCatV1.15B25,2014-01-09 19:04:00,
2014-01-09 14:09:00,27.4,7.4,30.57,West,265,0.0,5.0,42,0.00,,,0.00,WeatherCatV1.15B25,2014-01-09 19:09:00,
2014-01-09 14:14:00,27.4,7.4,30.58,WSW,243,4.0,4.0,42,0.00,,,0.00,WeatherCatV1.15B25,2014-01-09 19:14:00,
2014-01-09 14:20:00,27.6,7.0,30.58,West,274,1.0,2.0,41,0.00,,,0.00,WeatherCatV1.15B25,2014-01-09 19:20:00,
2014-01-09 14:26:00,27.4,6.8,30.58,WSW,252,5.0,8.0,41,0.00,,,0.00,WeatherCatV1.15B25,2014-01-09 19:26:00,
2014-01-09 14:31:00,27.5,7.5,30.58,ENE,77,1.0,4.0,42,0.00,,,0.00,WeatherCatV1.15B25,2014-01-09 19:31:00,
2014-01-09 14:36:00,27.5,7.5,30.59,WNW,295,1.0,3.0,42,0.00,,,0.00,WeatherCatV1.15B25,2014-01-09 19:36:00,
2014-01-09 14:41:00,27.5,7.5,30.59,NE,49,0.0,2.0,42,0.00,,,0.00,WeatherCatV1.15B25,2014-01-09 19:41:00,
2014-01-09 14:46:00,27.4,6.8,30.59,WNW,295,1.0,3.0,41,0.00,,,0.00,WeatherCatV1.15B25,2014-01-09 19:46:00,
2014-01-09 14:51:00,27.3,6.7,30.59,NE,54,0.0,1.0,41,0.00,,,0.00,WeatherCatV1.15B25,2014-01-09 19:51:00,
2014-01-09 14:56:00,27.3,7.3,30.59,WNW,298,0.0,1.0,42,0.00,,,0.00,WeatherCatV1.15B25,2014-01-09 19:56:00,
2014-01-09 15:01:00,27.3,6.7,30.59,NE,56,0.0,4.0,41,0.00,,,0.00,WeatherCatV1.15B25,2014-01-09 20:01:00,
2014-01-09 15:06:00,27.3,6.7,30.60,NW,319,1.0,3.0,41,0.00,,,0.00,WeatherCatV1.15B25,2014-01-09 20:06:00,
2014-01-09 15:11:00,27.0,6.5,30.59,ENE,70,1.0,2.0,41,0.00,,,0.00,WeatherCatV1.15B25,2014-01-09 20:11:00,
2014-01-09 15:16:00,26.8,6.8,30.59,NE,53,0.0,1.0,42,0.00,,,0.00,WeatherCatV1.15B25,2014-01-09 20:16:00,
2014-01-09 15:21:00,26.6,7.7,30.60,East,85,0.0,1.0,44,0.00,,,0.00,WeatherCatV1.15B25,2014-01-09 20:21:00,
2014-01-09 15:26:00,26.5,7.1,30.60,East,85,0.0,1.0,43,0.00,,,0.00,WeatherCatV1.15B25,2014-01-09 20:26:00,
2014-01-09 15:31:00,26.8,6.8,30.60,West,263,1.0,4.0,42,0.00,,,0.00,WeatherCatV1.15B25,2014-01-09 20:31:00,
2014-01-09 15:36:00,26.8,6.8,30.61,NW,316,0.0,2.0,42,0.00,,,0.00,WeatherCatV1.15B25,2014-01-09 20:36:00,
2014-01-09 15:41:00,26.8,6.3,30.61,West,278,0.0,1.0,41,0.00,,,0.00,WeatherCatV1.15B25,2014-01-09 20:41:00,
2014-01-09 15:46:00,26.8,6.3,30.61,NNE,21,0.0,3.0,41,0.00,,,0.00,WeatherCatV1.15B25,2014-01-09 20:46:00,
2014-01-09 15:51:00,26.7,7.2,30.61,West,273,2.0,3.0,43,0.00,,,0.00,WeatherCatV1.15B25,2014-01-09 20:51:00,
2014-01-09 15:56:00,26.6,6.6,30.62,WNW,295,1.0,2.0,42,0.00,,,0.00,WeatherCatV1.15B25,2014-01-09 20:56:00,
2014-01-09 16:01:00,26.6,6.6,30.62,East,81,1.0,1.0,42,0.00,,,0.00,WeatherCatV1.15B25,2014-01-09 21:01:00,
2014-01-09 16:06:00,26.6,6.6,30.61,West,277,2.0,2.0,42,0.00,,,0.00,WeatherCatV1.15B25,2014-01-09 21:06:00,
2014-01-09 16:11:00,26.6,6.1,30.61,NE,52,0.0,2.0,41,0.00,,,0.00,WeatherCatV1.15B25,2014-01-09 21:11:00,
2014-01-09 16:16:00,26.5,6.0,30.62,NNE,29,0.0,1.0,41,0.00,,,0.00,WeatherCatV1.15B25,2014-01-09 21:16:00,
2014-01-09 16:21:00,26.4,6.5,30.62,West,270,0.0,0.0,42,0.00,,,0.00,WeatherCatV1.15B25,2014-01-09 21:21:00,
2014-01-09 16:26:00,26.2,7.3,30.62,WNW,300,1.0,1.0,44,0.00,,,0.00,WeatherCatV1.15B25,2014-01-09 21:26:00,
2014-01-09 16:31:00,26.1,6.7,30.62,NW,309,0.0,0.0,43,0.00,,,0.00,WeatherCatV1.15B25,2014-01-09 21:31:00,
2014-01-09 16:36:00,25.9,7.0,30.62,NW,309,0.0,0.0,44,0.00,,,0.00,WeatherCatV1.15B25,2014-01-09 21:36:00,
2014-01-09 16:41:00,25.3,7.4,30.62,NW,309,0.0,0.0,46,0.00,,,0.00,WeatherCatV1.15B25,2014-01-09 21:41:00,
2014-01-09 16:46:00,24.8,7.5,30.62,NE,49,0.0,0.0,47,0.00,,,0.00,WeatherCatV1.15B25,2014-01-09 21:46:00,
2014-01-09 16:51:00,24.6,7.7,30.62,East,90,0.0,1.0,48,0.00,,,0.00,WeatherCatV1.15B25,2014-01-09 21:51:00,
2014-01-09 16:56:00,24.2,7.8,30.62,East,90,0.0,0.0,49,0.00,,,0.00,WeatherCatV1.15B25,2014-01-09 21:56:00,
2014-01-09 17:01:00,23.8,7.0,30.62,East,90,0.0,0.0,48,0.00,,,0.00,WeatherCatV1.15B25,2014-01-09 22:01:00,
2014-01-09 17:06:00,23.7,7.8,30.63,East,90,0.0,0.0,50,0.00,,,0.00,WeatherCatV1.15B25,2014-01-09 22:06:00,
2014-01-09 17:11:00,23.3,7.4,30.62,East,90,0.0,0.0,50,0.00,,,0.00,WeatherCatV1.15B25,2014-01-09 22:11:00,
2014-01-09 17:16:00,23.1,7.7,30.63,East,88,0.0,0.0,51,0.00,,,0.00,WeatherCatV1.15B25,2014-01-09 22:16:00,
2014-01-09 17:21:00,22.9,7.9,30.63,East,84,0.0,0.0,52,0.00,,,0.00,WeatherCatV1.15B25,2014-01-09 22:21:00,
2014-01-09 17:26:00,22.7,8.2,30.63,East,85,0.0,0.0,53,0.00,,,0.00,WeatherCatV1.15B25,2014-01-09 22:26:00,
2014-01-09 17:31:00,22.4,7.9,30.64,East,84,0.0,0.0,53,0.00,,,0.00,WeatherCatV1.15B25,2014-01-09 22:31:00,
2014-01-09 17:36:00,22.1,7.6,30.64,East,84,0.0,0.0,53,0.00,,,0.00,WeatherCatV1.15B25,2014-01-09 22:36:00,
2014-01-09 17:43:00,21.5,7.5,30.64,East,84,0.0,0.0,54,0.00,,,0.00,WeatherCatV1.15B25,2014-01-09 22:43:00,
2014-01-09 17:49:00,21.7,7.2,30.64,East,85,0.0,0.0,53,0.00,,,0.00,WeatherCatV1.15B25,2014-01-09 22:49:00,
2014-01-09 17:55:00,21.6,7.6,30.64,East,84,0.0,0.0,54,0.00,,,0.00,WeatherCatV1.15B25,2014-01-09 22:55:00,
2014-01-09 18:07:00,21.3,7.7,30.64,East,85,0.0,0.0,55,0.00,,,0.00,WeatherCatV1.15B25,2014-01-09 23:07:00,
2014-01-09 18:13:00,21.3,8.1,30.64,East,85,0.0,0.0,56,0.00,,,0.00,WeatherCatV1.15B25,2014-01-09 23:13:00,
2014-01-09 18:18:00,21.1,7.5,30.64,East,84,0.0,0.0,55,0.00,,,0.00,WeatherCatV1.15B25,2014-01-09 23:18:00,
2014-01-09 18:26:00,20.9,7.7,30.65,East,85,0.0,0.0,56,0.00,,,0.00,WeatherCatV1.15B25,2014-01-09 23:26:00,
2014-01-09 18:31:00,20.8,7.6,30.65,East,84,0.0,0.0,56,0.00,,,0.00,WeatherCatV1.15B25,2014-01-09 23:31:00,
2014-01-09 18:36:00,20.8,7.6,30.65,East,85,0.0,0.0,56,0.00,,,0.00,WeatherCatV1.15B25,2014-01-09 23:36:00,
2014-01-09 18:40:00,20.6,7.8,30.65,East,84,0.0,0.0,57,0.00,,,0.00,WeatherCatV1.15B25,2014-01-09 23:40:00,
2014-01-09 18:41:00,20.6,7.4,30.65,East,84,0.0,0.0,56,0.00,,,0.00,WeatherCatV1.15B25,2014-01-09 23:41:00,
2014-01-09 18:45:00,20.3,7.1,30.65,East,84,0.0,0.0,56,0.00,,,0.00,WeatherCatV1.15B25,2014-01-09 23:45:00,
2014-01-09 18:50:00,19.8,7.4,30.65,East,84,0.0,0.0,58,0.00,,,0.00,WeatherCatV1.15B25,2014-01-09 23:50:00,
2014-01-09 18:55:00,19.2,7.3,30.65,East,84,0.0,0.0,59,0.00,,,0.00,WeatherCatV1.15B25,2014-01-09 23:55:00,
2014-01-09 19:00:00,18.9,7.7,30.65,East,84,0.0,0.0,61,0.00,,,0.00,WeatherCatV1.15B25,2014-01-10 00:00:00,
2014-01-09 19:05:00,19.0,8.2,30.65,East,84,0.0,0.0,62,0.00,,,0.00,WeatherCatV1.15B25,2014-01-10 00:05:00,
2014-01-09 19:16:00,19.0,8.2,30.65,East,84,0.0,0.0,62,0.00,,,0.00,WeatherCatV1.15B25,2014-01-10 00:16:00,
2014-01-09 19:21:00,18.9,8.8,30.65,East,84,0.0,0.0,64,0.00,,,0.00,WeatherCatV1.15B25,2014-01-10 00:21:00,
2014-01-09 19:26:00,19.0,9.2,30.64,East,85,0.0,0.0,65,0.00,,,0.00,WeatherCatV1.15B25,2014-01-10 00:26:00,
2014-01-09 19:31:00,18.9,9.1,30.66,East,84,0.0,0.0,65,0.00,,,0.00,WeatherCatV1.15B25,2014-01-10 00:31:00,
2014-01-09 19:36:00,18.9,8.8,30.65,East,84,0.0,0.0,64,0.00,,,0.00,WeatherCatV1.15B25,2014-01-10 00:36:00,
2014-01-09 19:41:00,18.5,8.4,30.65,East,85,0.0,0.0,64,0.00,,,0.00,WeatherCatV1.15B25,2014-01-10 00:41:00,
2014-01-09 19:46:00,18.4,9.0,30.65,East,85,0.0,0.0,66,0.00,,,0.00,WeatherCatV1.15B25,2014-01-10 00:46:00,
2014-01-09 19:51:00,18.5,9.1,30.65,East,85,0.0,0.0,66,0.00,,,0.00,WeatherCatV1.15B25,2014-01-10 00:51:00,
2014-01-09 19:56:00,18.6,9.2,30.65,East,85,0.0,0.0,66,0.00,,,0.00,WeatherCatV1.15B25,2014-01-10 00:56:00,
2014-01-09 20:01:00,18.4,9.3,30.65,East,85,0.0,0.0,67,0.00,,,0.00,WeatherCatV1.15B25,2014-01-10 01:01:00,
2014-01-09 20:06:00,18.2,9.4,30.65,East,85,0.0,0.0,68,0.00,,,0.00,WeatherCatV1.15B25,2014-01-10 01:06:00,
2014-01-09 20:11:00,17.8,9.1,30.65,East,85,0.0,0.0,68,0.00,,,0.00,WeatherCatV1.15B25,2014-01-10 01:11:00,
2014-01-09 20:16:00,17.7,9.6,30.64,East,84,0.0,0.0,70,0.00,,,0.00,WeatherCatV1.15B25,2014-01-10 01:16:00,
2014-01-09 20:21:00,17.4,9.3,30.64,East,85,0.0,0.0,70,0.00,,,0.00,WeatherCatV1.15B25,2014-01-10 01:21:00,
2014-01-09 20:26:00,17.5,9.4,30.64,East,85,0.0,0.0,70,0.00,,,0.00,WeatherCatV1.15B25,2014-01-10 01:26:00,
2014-01-09 20:31:00,17.3,8.9,30.64,East,84,0.0,0.0,69,0.00,,,0.00,WeatherCatV1.15B25,2014-01-10 01:31:00,
2014-01-09 20:36:00,17.0,8.9,30.64,East,85,0.0,0.0,70,0.00,,,0.00,WeatherCatV1.15B25,2014-01-10 01:36:00,
2014-01-09 20:41:00,17.0,9.2,30.64,East,94,0.0,0.0,71,0.00,,,0.00,WeatherCatV1.15B25,2014-01-10 01:41:00,
2014-01-09 20:46:00,17.0,8.9,30.63,East,93,0.0,0.0,70,0.00,,,0.00,WeatherCatV1.15B25,2014-01-10 01:46:00,
2014-01-09 20:51:00,16.7,8.6,30.64,East,94,0.0,0.0,70,0.00,,,0.00,WeatherCatV1.15B25,2014-01-10 01:51:00,
2014-01-09 20:56:00,16.7,9.0,30.63,East,93,0.0,0.0,71,0.00,,,0.00,WeatherCatV1.15B25,2014-01-10 01:56:00,
2014-01-09 21:01:00,16.6,8.9,30.63,East,98,0.0,0.0,71,0.00,,,0.00,WeatherCatV1.15B25,2014-01-10 02:01:00,
2014-01-09 21:06:00,16.6,9.2,30.64,East,87,0.0,0.0,72,0.00,,,0.00,WeatherCatV1.15B25,2014-01-10 02:06:00,
2014-01-09 21:11:00,16.4,8.7,30.64,East,87,0.0,1.0,71,0.00,,,0.00,WeatherCatV1.15B25,2014-01-10 02:11:00,
2014-01-09 21:16:00,16.2,8.8,30.65,East,87,0.0,0.0,72,0.00,,,0.00,WeatherCatV1.15B25,2014-01-10 02:16:00,
2014-01-09 21:21:00,16.0,8.9,30.63,East,87,0.0,0.0,73,0.00,,,0.00,WeatherCatV1.15B25,2014-01-10 02:21:00,
2014-01-09 21:26:00,15.8,8.7,30.64,East,87,0.0,0.0,73,0.00,,,0.00,WeatherCatV1.15B25,2014-01-10 02:26:00,
2014-01-09 21:31:00,15.7,8.9,30.64,East,87,0.0,0.0,74,0.00,,,0.00,WeatherCatV1.15B25,2014-01-10 02:31:00,
2014-01-09 21:36:00,15.5,8.4,30.64,NE,34,0.0,0.0,73,0.00,,,0.00,WeatherCatV1.15B25,2014-01-10 02:36:00,
2014-01-09 21:41:00,15.6,8.8,30.64,East,84,0.0,0.0,74,0.00,,,0.00,WeatherCatV1.15B25,2014-01-10 02:41:00,
2014-01-09 21:46:00,15.6,8.8,30.64,East,84,0.0,0.0,74,0.00,,,0.00,WeatherCatV1.15B25,2014-01-10 02:46:00,
2014-01-09 21:51:00,15.4,8.9,30.64,East,91,0.0,1.0,75,0.00,,,0.00,WeatherCatV1.15B25,2014-01-10 02:51:00,
2014-01-09 21:56:00,15.1,8.6,30.64,East,91,0.0,0.0,75,0.00,,,0.00,WeatherCatV1.15B25,2014-01-10 02:56:00,
2014-01-09 22:01:00,14.9,8.7,30.64,East,91,0.0,0.0,76,0.00,,,0.00,WeatherCatV1.15B25,2014-01-10 03:01:00,
2014-01-09 22:06:00,14.7,8.5,30.64,East,91,0.0,0.0,76,0.00,,,0.00,WeatherCatV1.15B25,2014-01-10 03:06:00,
2014-01-09 22:11:00,14.6,8.7,30.63,East,91,0.0,0.0,77,0.00,,,0.00,WeatherCatV1.15B25,2014-01-10 03:11:00,
2014-01-09 22:16:00,14.5,8.6,30.63,East,91,0.0,0.0,77,0.00,,,0.00,WeatherCatV1.15B25,2014-01-10 03:16:00,
2014-01-09 22:21:00,14.3,8.7,30.63,East,91,0.0,0.0,78,0.00,,,0.00,WeatherCatV1.15B25,2014-01-10 03:21:00,
2014-01-09 22:26:00,14.3,8.7,30.63,East,98,0.0,2.0,78,0.00,,,0.00,WeatherCatV1.15B25,2014-01-10 03:26:00,
2014-01-09 22:31:00,14.5,8.6,30.62,East,99,0.0,0.0,77,0.00,,,0.00,WeatherCatV1.15B25,2014-01-10 03:31:00,
2014-01-09 22:36:00,14.3,8.4,30.62,East,99,0.0,0.0,77,0.00,,,0.00,WeatherCatV1.15B25,2014-01-10 03:36:00,
2014-01-09 22:41:00,14.2,8.6,30.62,East,99,0.0,0.0,78,0.00,,,0.00,WeatherCatV1.15B25,2014-01-10 03:41:00,
2014-01-09 22:46:00,13.9,8.3,30.62,East,99,0.0,1.0,78,0.00,,,0.00,WeatherCatV1.15B25,2014-01-10 03:46:00,
2014-01-09 22:51:00,14.0,8.7,30.62,East,99,0.0,0.0,79,0.00,,,0.00,WeatherCatV1.15B25,2014-01-10 03:51:00,
2014-01-09 22:56:00,14.1,8.8,30.62,East,99,0.0,1.0,79,0.00,,,0.00,WeatherCatV1.15B25,2014-01-10 03:56:00,
2014-01-09 23:01:00,14.1,8.8,30.63,East,99,0.0,1.0,79,0.00,,,0.00,WeatherCatV1.15B25,2014-01-10 04:01:00,
2014-01-09 23:06:00,13.9,8.6,30.62,NW,321,0.0,0.0,79,0.00,,,0.00,WeatherCatV1.15B25,2014-01-10 04:06:00,
2014-01-09 23:11:00,13.9,8.6,30.62,NW,321,0.0,0.0,79,0.00,,,0.00,WeatherCatV1.15B25,2014-01-10 04:11:00,
2014-01-09 23:16:00,13.7,8.4,30.62,NW,321,0.0,0.0,79,0.00,,,0.00,WeatherCatV1.15B25,2014-01-10 04:16:00,
2014-01-09 23:21:00,13.4,8.1,30.62,NW,321,0.0,0.0,79,0.00,,,0.00,WeatherCatV1.15B25,2014-01-10 04:21:00,
2014-01-09 23:26:00,13.2,8.2,30.61,NW,321,0.0,0.0,80,0.00,,,0.00,WeatherCatV1.15B25,2014-01-10 04:26:00,
2014-01-09 23:31:00,13.1,8.1,30.61,NW,321,0.0,0.0,80,0.00,,,0.00,WeatherCatV1.15B25,2014-01-10 04:31:00,
2014-01-09 23:36:00,13.1,8.4,30.60,East,95,0.0,0.0,81,0.00,,,0.00,WeatherCatV1.15B25,2014-01-10 04:36:00,
2014-01-09 23:41:00,12.9,8.2,30.60,East,95,0.0,0.0,81,0.00,,,0.00,WeatherCatV1.15B25,2014-01-10 04:41:00,
2014-01-09 23:46:00,12.5,7.5,30.60,East,95,0.0,0.0,80,0.00,,,0.00,WeatherCatV1.15B25,2014-01-10 04:46:00,
2014-01-09 23:51:00,12.3,7.6,30.60,East,95,0.0,0.0,81,0.00,,,0.00,WeatherCatV1.15B25,2014-01-10 04:51:00,
2014-01-09 23:56:00,12.1,7.4,30.60,East,95,0.0,0.0,81,0.00,,,0.00,WeatherCatV1.15B25,2014-01-10 04:56:00,